sensor_id;sensor_type;location;lat;lon;timestamp;P1;durP1;ratioP1;P2;durP2;ratioP2
55827;SDS011;41758;51.992;5.890;2023-06-14T00:00:40;7.05;;;2.60;;
55827;SDS011;41758;51.992;5.890;2023-06-14T00:03:06;3.83;;;2.28;;
55827;SDS011;41758;51.992;5.890;2023-06-14T00:05:35;3.65;;;2.10;;
55827;SDS011;41758;51.992;5.890;2023-06-14T00:08:07;3.97;;;2.40;;
55827;SDS011;41758;51.992;5.890;2023-06-14T00:10:34;6.15;;;2.33;;
55827;SDS011;41758;51.992;5.890;2023-06-14T00:13:04;4.13;;;2.20;;
55827;SDS011;41758;51.992;5.890;2023-06-14T00:15:30;3.80;;;2.20;;
55827;SDS011;41758;51.992;5.890;2023-06-14T00:17:59;3.83;;;2.10;;
55827;SDS011;41758;51.992;5.890;2023-06-14T00:20:29;3.60;;;2.17;;
55827;SDS011;41758;51.992;5.890;2023-06-14T00:23:01;4.10;;;2.40;;
55827;SDS011;41758;51.992;5.890;2023-06-14T00:25:27;3.95;;;2.20;;
55827;SDS011;41758;51.992;5.890;2023-06-14T00:27:53;4.15;;;2.38;;
55827;SDS011;41758;51.992;5.890;2023-06-14T00:30:20;4.53;;;2.42;;
55827;SDS011;41758;51.992;5.890;2023-06-14T00:32:46;5.93;;;2.35;;
55827;SDS011;41758;51.992;5.890;2023-06-14T00:35:12;6.90;;;2.20;;
55827;SDS011;41758;51.992;5.890;2023-06-14T00:37:38;3.92;;;2.28;;
55827;SDS011;41758;51.992;5.890;2023-06-14T00:40:04;4.10;;;2.20;;
55827;SDS011;41758;51.992;5.890;2023-06-14T00:42:30;3.42;;;2.22;;
55827;SDS011;41758;51.992;5.890;2023-06-14T00:44:56;4.10;;;2.22;;
55827;SDS011;41758;51.992;5.890;2023-06-14T00:47:23;4.35;;;2.28;;
55827;SDS011;41758;51.992;5.890;2023-06-14T00:49:50;4.32;;;2.10;;
55827;SDS011;41758;51.992;5.890;2023-06-14T00:52:16;3.40;;;2.20;;
55827;SDS011;41758;51.992;5.890;2023-06-14T00:54:43;4.53;;;2.38;;
55827;SDS011;41758;51.992;5.890;2023-06-14T00:57:09;4.70;;;2.47;;
55827;SDS011;41758;51.992;5.890;2023-06-14T00:59:42;3.67;;;2.20;;
55827;SDS011;41758;51.992;5.890;2023-06-14T01:02:10;4.38;;;2.30;;
55827;SDS011;41758;51.992;5.890;2023-06-14T01:04:36;4.85;;;2.40;;
55827;SDS011;41758;51.992;5.890;2023-06-14T01:07:15;17.30;;;7.40;;
55827;SDS011;41758;51.992;5.890;2023-06-14T01:10:01;12.15;;;6.03;;
55827;SDS011;41758;51.992;5.890;2023-06-14T01:15:07;7.63;;;3.75;;
55827;SDS011;41758;51.992;5.890;2023-06-14T01:17:34;5.43;;;3.10;;
55827;SDS011;41758;51.992;5.890;2023-06-14T01:20:01;5.32;;;2.90;;
55827;SDS011;41758;51.992;5.890;2023-06-14T01:22:28;4.45;;;2.63;;
55827;SDS011;41758;51.992;5.890;2023-06-14T01:24:54;4.45;;;2.45;;
55827;SDS011;41758;51.992;5.890;2023-06-14T01:27:23;5.03;;;2.58;;
55827;SDS011;41758;51.992;5.890;2023-06-14T01:29:53;5.85;;;2.20;;
55827;SDS011;41758;51.992;5.890;2023-06-14T01:32:25;3.83;;;2.25;;
55827;SDS011;41758;51.992;5.890;2023-06-14T01:34:53;3.83;;;2.40;;
55827;SDS011;41758;51.992;5.890;2023-06-14T01:37:19;4.57;;;2.30;;
55827;SDS011;41758;51.992;5.890;2023-06-14T01:39:47;2.60;;;1.88;;
55827;SDS011;41758;51.992;5.890;2023-06-14T01:42:18;4.10;;;2.22;;
55827;SDS011;41758;51.992;5.890;2023-06-14T01:44:44;3.42;;;1.90;;
55827;SDS011;41758;51.992;5.890;2023-06-14T01:47:12;3.92;;;2.00;;
55827;SDS011;41758;51.992;5.890;2023-06-14T01:49:40;3.50;;;2.00;;
55827;SDS011;41758;51.992;5.890;2023-06-14T01:52:05;4.35;;;2.40;;
55827;SDS011;41758;51.992;5.890;2023-06-14T01:54:35;5.32;;;2.20;;
55827;SDS011;41758;51.992;5.890;2023-06-14T01:57:06;6.10;;;2.38;;
55827;SDS011;41758;51.992;5.890;2023-06-14T01:59:33;3.55;;;2.00;;
55827;SDS011;41758;51.992;5.890;2023-06-14T02:02:01;3.88;;;2.20;;
55827;SDS011;41758;51.992;5.890;2023-06-14T02:04:31;3.70;;;2.30;;
55827;SDS011;41758;51.992;5.890;2023-06-14T02:06:56;3.63;;;2.45;;
55827;SDS011;41758;51.992;5.890;2023-06-14T02:09:22;4.07;;;2.13;;
55827;SDS011;41758;51.992;5.890;2023-06-14T02:11:49;3.80;;;2.40;;
55827;SDS011;41758;51.992;5.890;2023-06-14T02:14:14;4.15;;;2.20;;
55827;SDS011;41758;51.992;5.890;2023-06-14T02:16:42;3.75;;;2.20;;
55827;SDS011;41758;51.992;5.890;2023-06-14T02:19:17;4.53;;;2.50;;
55827;SDS011;41758;51.992;5.890;2023-06-14T02:21:44;3.42;;;2.33;;
55827;SDS011;41758;51.992;5.890;2023-06-14T02:24:11;3.75;;;2.30;;
55827;SDS011;41758;51.992;5.890;2023-06-14T02:26:37;5.90;;;2.30;;
55827;SDS011;41758;51.992;5.890;2023-06-14T02:29:07;3.95;;;2.08;;
55827;SDS011;41758;51.992;5.890;2023-06-14T02:31:38;3.70;;;2.30;;
55827;SDS011;41758;51.992;5.890;2023-06-14T02:34:03;3.30;;;2.03;;
55827;SDS011;41758;51.992;5.890;2023-06-14T02:36:30;4.38;;;2.10;;
55827;SDS011;41758;51.992;5.890;2023-06-14T02:38:56;3.63;;;2.30;;
55827;SDS011;41758;51.992;5.890;2023-06-14T02:41:25;3.20;;;2.08;;
55827;SDS011;41758;51.992;5.890;2023-06-14T02:43:52;3.78;;;2.30;;
55827;SDS011;41758;51.992;5.890;2023-06-14T02:46:18;4.25;;;2.20;;
55827;SDS011;41758;51.992;5.890;2023-06-14T02:48:44;3.78;;;2.17;;
55827;SDS011;41758;51.992;5.890;2023-06-14T02:51:10;4.40;;;2.22;;
55827;SDS011;41758;51.992;5.890;2023-06-14T02:53:36;3.40;;;2.00;;
55827;SDS011;41758;51.992;5.890;2023-06-14T02:56:02;4.53;;;2.15;;
55827;SDS011;41758;51.992;5.890;2023-06-14T02:58:30;4.05;;;2.20;;
55827;SDS011;41758;51.992;5.890;2023-06-14T03:00:56;3.75;;;2.15;;
55827;SDS011;41758;51.992;5.890;2023-06-14T03:03:22;3.17;;;2.00;;
55827;SDS011;41758;51.992;5.890;2023-06-14T03:05:53;4.43;;;2.15;;
55827;SDS011;41758;51.992;5.890;2023-06-14T03:08:23;3.70;;;2.00;;
55827;SDS011;41758;51.992;5.890;2023-06-14T03:10:53;4.00;;;2.20;;
55827;SDS011;41758;51.992;5.890;2023-06-14T03:13:22;5.43;;;2.42;;
55827;SDS011;41758;51.992;5.890;2023-06-14T03:15:49;3.30;;;2.10;;
55827;SDS011;41758;51.992;5.890;2023-06-14T03:18:16;3.80;;;2.30;;
55827;SDS011;41758;51.992;5.890;2023-06-14T03:20:42;3.97;;;2.22;;
55827;SDS011;41758;51.992;5.890;2023-06-14T03:23:11;4.15;;;2.13;;
55827;SDS011;41758;51.992;5.890;2023-06-14T03:25:37;3.15;;;1.90;;
55827;SDS011;41758;51.992;5.890;2023-06-14T03:28:06;3.95;;;1.88;;
55827;SDS011;41758;51.992;5.890;2023-06-14T03:30:32;3.67;;;2.28;;
55827;SDS011;41758;51.992;5.890;2023-06-14T03:32:58;3.50;;;2.30;;
55827;SDS011;41758;51.992;5.890;2023-06-14T03:35:28;3.42;;;2.10;;
55827;SDS011;41758;51.992;5.890;2023-06-14T03:37:54;4.68;;;2.03;;
55827;SDS011;41758;51.992;5.890;2023-06-14T03:40:20;3.00;;;1.90;;
55827;SDS011;41758;51.992;5.890;2023-06-14T03:42:51;5.05;;;2.22;;
55827;SDS011;41758;51.992;5.890;2023-06-14T03:45:17;3.90;;;2.28;;
55827;SDS011;41758;51.992;5.890;2023-06-14T03:47:49;3.78;;;2.00;;
55827;SDS011;41758;51.992;5.890;2023-06-14T03:50:16;3.67;;;2.25;;
55827;SDS011;41758;51.992;5.890;2023-06-14T03:52:43;3.90;;;2.30;;
55827;SDS011;41758;51.992;5.890;2023-06-14T03:55:10;3.30;;;2.13;;
55827;SDS011;41758;51.992;5.890;2023-06-14T03:57:39;3.47;;;1.90;;
55827;SDS011;41758;51.992;5.890;2023-06-14T04:00:09;3.70;;;2.10;;
55827;SDS011;41758;51.992;5.890;2023-06-14T04:02:39;3.47;;;2.00;;
55827;SDS011;41758;51.992;5.890;2023-06-14T04:05:07;5.13;;;2.10;;
55827;SDS011;41758;51.992;5.890;2023-06-14T04:07:35;3.85;;;2.05;;
55827;SDS011;41758;51.992;5.890;2023-06-14T04:10:10;3.50;;;2.25;;
55827;SDS011;41758;51.992;5.890;2023-06-14T04:12:37;3.67;;;2.22;;
55827;SDS011;41758;51.992;5.890;2023-06-14T04:15:03;3.85;;;2.10;;
55827;SDS011;41758;51.992;5.890;2023-06-14T04:17:34;3.83;;;2.20;;
55827;SDS011;41758;51.992;5.890;2023-06-14T04:20:04;3.42;;;2.10;;
55827;SDS011;41758;51.992;5.890;2023-06-14T04:22:34;3.85;;;2.13;;
55827;SDS011;41758;51.992;5.890;2023-06-14T04:25:03;3.38;;;2.17;;
55827;SDS011;41758;51.992;5.890;2023-06-14T04:27:32;4.18;;;2.17;;
55827;SDS011;41758;51.992;5.890;2023-06-14T04:29:59;3.72;;;2.28;;
55827;SDS011;41758;51.992;5.890;2023-06-14T04:32:34;4.78;;;1.98;;
55827;SDS011;41758;51.992;5.890;2023-06-14T04:35:04;2.95;;;1.90;;
55827;SDS011;41758;51.992;5.890;2023-06-14T04:37:35;4.35;;;2.40;;
55827;SDS011;41758;51.992;5.890;2023-06-14T04:40:05;3.85;;;2.28;;
55827;SDS011;41758;51.992;5.890;2023-06-14T04:42:32;3.88;;;2.38;;
55827;SDS011;41758;51.992;5.890;2023-06-14T04:44:59;3.30;;;2.20;;
55827;SDS011;41758;51.992;5.890;2023-06-14T04:47:26;2.85;;;2.00;;
55827;SDS011;41758;51.992;5.890;2023-06-14T04:49:59;4.95;;;2.03;;
55827;SDS011;41758;51.992;5.890;2023-06-14T04:52:27;3.95;;;1.98;;
55827;SDS011;41758;51.992;5.890;2023-06-14T04:54:55;3.10;;;1.90;;
55827;SDS011;41758;51.992;5.890;2023-06-14T04:57:21;4.05;;;2.15;;
55827;SDS011;41758;51.992;5.890;2023-06-14T04:59:49;4.45;;;2.10;;
55827;SDS011;41758;51.992;5.890;2023-06-14T05:02:21;3.50;;;2.00;;
55827;SDS011;41758;51.992;5.890;2023-06-14T05:04:48;3.65;;;2.22;;
55827;SDS011;41758;51.992;5.890;2023-06-14T05:07:14;3.47;;;2.30;;
55827;SDS011;41758;51.992;5.890;2023-06-14T05:09:41;3.83;;;2.40;;
55827;SDS011;41758;51.992;5.890;2023-06-14T05:12:07;4.47;;;2.42;;
55827;SDS011;41758;51.992;5.890;2023-06-14T05:14:33;4.75;;;2.28;;
55827;SDS011;41758;51.992;5.890;2023-06-14T05:17:00;4.07;;;2.40;;
55827;SDS011;41758;51.992;5.890;2023-06-14T05:19:26;4.28;;;2.30;;
55827;SDS011;41758;51.992;5.890;2023-06-14T05:21:51;3.60;;;2.10;;
55827;SDS011;41758;51.992;5.890;2023-06-14T05:24:18;4.03;;;2.35;;
55827;SDS011;41758;51.992;5.890;2023-06-14T05:26:43;3.55;;;2.00;;
55827;SDS011;41758;51.992;5.890;2023-06-14T05:29:09;4.15;;;2.13;;
55827;SDS011;41758;51.992;5.890;2023-06-14T05:31:35;3.45;;;2.17;;
55827;SDS011;41758;51.992;5.890;2023-06-14T05:34:02;3.63;;;2.20;;
55827;SDS011;41758;51.992;5.890;2023-06-14T05:36:27;3.92;;;2.08;;
55827;SDS011;41758;51.992;5.890;2023-06-14T05:38:54;3.90;;;2.00;;
55827;SDS011;41758;51.992;5.890;2023-06-14T05:41:25;3.45;;;2.03;;
55827;SDS011;41758;51.992;5.890;2023-06-14T05:43:55;3.38;;;1.98;;
55827;SDS011;41758;51.992;5.890;2023-06-14T05:46:21;3.38;;;2.17;;
55827;SDS011;41758;51.992;5.890;2023-06-14T05:48:50;3.72;;;2.30;;
55827;SDS011;41758;51.992;5.890;2023-06-14T05:51:20;3.72;;;2.00;;
55827;SDS011;41758;51.992;5.890;2023-06-14T05:53:46;3.28;;;2.03;;
55827;SDS011;41758;51.992;5.890;2023-06-14T05:56:13;3.60;;;2.13;;
55827;SDS011;41758;51.992;5.890;2023-06-14T05:58:39;3.00;;;1.90;;
55827;SDS011;41758;51.992;5.890;2023-06-14T06:01:05;3.85;;;2.22;;
55827;SDS011;41758;51.992;5.890;2023-06-14T06:03:31;4.38;;;2.30;;
55827;SDS011;41758;51.992;5.890;2023-06-14T06:05:57;3.55;;;1.95;;
55827;SDS011;41758;51.992;5.890;2023-06-14T06:08:23;3.15;;;2.08;;
55827;SDS011;41758;51.992;5.890;2023-06-14T06:10:49;2.65;;;1.83;;
55827;SDS011;41758;51.992;5.890;2023-06-14T06:13:15;4.15;;;2.30;;
55827;SDS011;41758;51.992;5.890;2023-06-14T06:15:41;3.72;;;2.58;;
55827;SDS011;41758;51.992;5.890;2023-06-14T06:18:06;4.30;;;2.30;;
55827;SDS011;41758;51.992;5.890;2023-06-14T06:20:32;3.45;;;2.05;;
55827;SDS011;41758;51.992;5.890;2023-06-14T06:22:58;3.70;;;1.92;;
55827;SDS011;41758;51.992;5.890;2023-06-14T06:25:27;3.90;;;2.17;;
55827;SDS011;41758;51.992;5.890;2023-06-14T06:27:53;4.07;;;2.10;;
55827;SDS011;41758;51.992;5.890;2023-06-14T06:30:21;4.05;;;2.03;;
55827;SDS011;41758;51.992;5.890;2023-06-14T06:32:47;3.95;;;2.10;;
55827;SDS011;41758;51.992;5.890;2023-06-14T06:35:13;3.30;;;2.10;;
55827;SDS011;41758;51.992;5.890;2023-06-14T06:37:39;3.50;;;2.17;;
55827;SDS011;41758;51.992;5.890;2023-06-14T06:40:07;3.58;;;2.08;;
55827;SDS011;41758;51.992;5.890;2023-06-14T06:42:33;3.05;;;2.05;;
55827;SDS011;41758;51.992;5.890;2023-06-14T06:45:02;4.35;;;2.25;;
55827;SDS011;41758;51.992;5.890;2023-06-14T06:47:28;3.17;;;1.90;;
55827;SDS011;41758;51.992;5.890;2023-06-14T06:49:54;3.22;;;2.00;;
55827;SDS011;41758;51.992;5.890;2023-06-14T06:52:20;3.40;;;2.13;;
55827;SDS011;41758;51.992;5.890;2023-06-14T06:54:45;3.30;;;1.90;;
55827;SDS011;41758;51.992;5.890;2023-06-14T06:57:11;4.18;;;2.10;;
55827;SDS011;41758;51.992;5.890;2023-06-14T06:59:37;3.92;;;2.00;;
55827;SDS011;41758;51.992;5.890;2023-06-14T07:02:03;3.53;;;2.00;;
55827;SDS011;41758;51.992;5.890;2023-06-14T07:04:29;3.20;;;1.98;;
55827;SDS011;41758;51.992;5.890;2023-06-14T07:06:56;4.55;;;1.95;;
55827;SDS011;41758;51.992;5.890;2023-06-14T07:09:22;3.60;;;1.85;;
55827;SDS011;41758;51.992;5.890;2023-06-14T07:11:48;3.50;;;1.88;;
55827;SDS011;41758;51.992;5.890;2023-06-14T07:14:13;3.47;;;2.08;;
55827;SDS011;41758;51.992;5.890;2023-06-14T07:16:39;4.00;;;1.92;;
55827;SDS011;41758;51.992;5.890;2023-06-14T07:19:06;3.17;;;1.92;;
55827;SDS011;41758;51.992;5.890;2023-06-14T07:21:32;3.85;;;2.20;;
55827;SDS011;41758;51.992;5.890;2023-06-14T07:23:57;3.17;;;1.90;;
55827;SDS011;41758;51.992;5.890;2023-06-14T07:26:23;2.60;;;1.80;;
55827;SDS011;41758;51.992;5.890;2023-06-14T07:28:50;3.83;;;1.80;;
55827;SDS011;41758;51.992;5.890;2023-06-14T07:31:15;2.67;;;1.80;;
55827;SDS011;41758;51.992;5.890;2023-06-14T07:33:42;2.85;;;1.63;;
55827;SDS011;41758;51.992;5.890;2023-06-14T07:36:08;2.45;;;1.73;;
55827;SDS011;41758;51.992;5.890;2023-06-14T07:38:33;2.75;;;1.70;;
55827;SDS011;41758;51.992;5.890;2023-06-14T07:41:00;3.10;;;1.67;;
55827;SDS011;41758;51.992;5.890;2023-06-14T07:43:25;2.50;;;1.73;;
55827;SDS011;41758;51.992;5.890;2023-06-14T07:45:51;2.25;;;1.50;;
55827;SDS011;41758;51.992;5.890;2023-06-14T07:48:17;2.90;;;1.88;;
55827;SDS011;41758;51.992;5.890;2023-06-14T07:50:43;2.55;;;1.70;;
55827;SDS011;41758;51.992;5.890;2023-06-14T07:53:09;2.53;;;1.45;;
55827;SDS011;41758;51.992;5.890;2023-06-14T07:55:35;2.88;;;1.60;;
55827;SDS011;41758;51.992;5.890;2023-06-14T07:58:05;2.53;;;1.55;;
55827;SDS011;41758;51.992;5.890;2023-06-14T08:00:31;3.17;;;1.65;;
55827;SDS011;41758;51.992;5.890;2023-06-14T08:02:57;2.03;;;1.40;;
55827;SDS011;41758;51.992;5.890;2023-06-14T08:05:24;2.28;;;1.42;;
55827;SDS011;41758;51.992;5.890;2023-06-14T08:07:53;2.33;;;1.50;;
55827;SDS011;41758;51.992;5.890;2023-06-14T08:10:19;2.45;;;1.27;;
55827;SDS011;41758;51.992;5.890;2023-06-14T08:12:45;2.70;;;1.52;;
55827;SDS011;41758;51.992;5.890;2023-06-14T08:15:11;2.13;;;1.40;;
55827;SDS011;41758;51.992;5.890;2023-06-14T08:17:37;2.42;;;1.45;;
55827;SDS011;41758;51.992;5.890;2023-06-14T08:20:03;3.53;;;1.55;;
55827;SDS011;41758;51.992;5.890;2023-06-14T08:22:30;3.55;;;1.40;;
55827;SDS011;41758;51.992;5.890;2023-06-14T08:24:59;2.67;;;1.40;;
55827;SDS011;41758;51.992;5.890;2023-06-14T08:27:26;2.80;;;1.55;;
55827;SDS011;41758;51.992;5.890;2023-06-14T08:29:52;2.95;;;1.50;;
55827;SDS011;41758;51.992;5.890;2023-06-14T08:32:17;3.30;;;1.52;;
55827;SDS011;41758;51.992;5.890;2023-06-14T08:34:43;3.88;;;1.80;;
55827;SDS011;41758;51.992;5.890;2023-06-14T08:37:09;2.85;;;1.58;;
55827;SDS011;41758;51.992;5.890;2023-06-14T08:39:34;2.78;;;1.60;;
55827;SDS011;41758;51.992;5.890;2023-06-14T08:42:01;3.72;;;1.73;;
55827;SDS011;41758;51.992;5.890;2023-06-14T08:44:28;2.33;;;1.60;;
55827;SDS011;41758;51.992;5.890;2023-06-14T08:46:55;2.45;;;1.60;;
55827;SDS011;41758;51.992;5.890;2023-06-14T08:49:22;2.78;;;1.63;;
55827;SDS011;41758;51.992;5.890;2023-06-14T08:51:55;2.83;;;1.50;;
55827;SDS011;41758;51.992;5.890;2023-06-14T08:54:25;3.33;;;1.70;;
55827;SDS011;41758;51.992;5.890;2023-06-14T08:56:53;2.17;;;1.50;;
55827;SDS011;41758;51.992;5.890;2023-06-14T08:59:23;3.95;;;1.63;;
55827;SDS011;41758;51.992;5.890;2023-06-14T09:01:52;3.72;;;1.67;;
55827;SDS011;41758;51.992;5.890;2023-06-14T09:04:20;2.20;;;1.40;;
55827;SDS011;41758;51.992;5.890;2023-06-14T09:06:47;1.88;;;1.30;;
55827;SDS011;41758;51.992;5.890;2023-06-14T09:09:19;2.97;;;1.65;;
55827;SDS011;41758;51.992;5.890;2023-06-14T09:11:45;3.65;;;1.60;;
55827;SDS011;41758;51.992;5.890;2023-06-14T09:14:11;4.68;;;1.90;;
55827;SDS011;41758;51.992;5.890;2023-06-14T09:16:37;2.80;;;1.60;;
55827;SDS011;41758;51.992;5.890;2023-06-14T09:19:02;2.60;;;1.40;;
55827;SDS011;41758;51.992;5.890;2023-06-14T09:21:28;3.75;;;1.65;;
55827;SDS011;41758;51.992;5.890;2023-06-14T09:23:59;2.47;;;1.52;;
55827;SDS011;41758;51.992;5.890;2023-06-14T09:26:25;2.28;;;1.38;;
55827;SDS011;41758;51.992;5.890;2023-06-14T09:28:52;2.22;;;1.40;;
55827;SDS011;41758;51.992;5.890;2023-06-14T09:31:19;3.00;;;1.40;;
55827;SDS011;41758;51.992;5.890;2023-06-14T09:33:46;1.75;;;1.25;;
55827;SDS011;41758;51.992;5.890;2023-06-14T09:36:23;1.98;;;1.35;;
55827;SDS011;41758;51.992;5.890;2023-06-14T09:38:54;2.08;;;1.40;;
55827;SDS011;41758;51.992;5.890;2023-06-14T09:41:37;2.28;;;1.40;;
55827;SDS011;41758;51.992;5.890;2023-06-14T09:44:08;2.47;;;1.35;;
55827;SDS011;41758;51.992;5.890;2023-06-14T09:46:35;2.72;;;1.73;;
55827;SDS011;41758;51.992;5.890;2023-06-14T09:49:01;2.40;;;1.50;;
55827;SDS011;41758;51.992;5.890;2023-06-14T09:51:30;2.72;;;1.40;;
55827;SDS011;41758;51.992;5.890;2023-06-14T09:54:01;2.30;;;1.45;;
55827;SDS011;41758;51.992;5.890;2023-06-14T09:56:31;2.83;;;1.55;;
55827;SDS011;41758;51.992;5.890;2023-06-14T09:59:03;2.13;;;1.38;;
55827;SDS011;41758;51.992;5.890;2023-06-14T10:01:31;1.83;;;1.30;;
55827;SDS011;41758;51.992;5.890;2023-06-14T10:04:01;2.13;;;1.33;;
55827;SDS011;41758;51.992;5.890;2023-06-14T10:06:29;2.05;;;1.20;;
55827;SDS011;41758;51.992;5.890;2023-06-14T10:08:59;2.95;;;1.40;;
55827;SDS011;41758;51.992;5.890;2023-06-14T10:11:28;4.30;;;1.40;;
55827;SDS011;41758;51.992;5.890;2023-06-14T10:13:54;1.80;;;1.20;;
55827;SDS011;41758;51.992;5.890;2023-06-14T10:19:28;1.60;;;1.20;;
55827;SDS011;41758;51.992;5.890;2023-06-14T10:22:08;2.22;;;1.40;;
55827;SDS011;41758;51.992;5.890;2023-06-14T10:24:40;2.08;;;1.30;;
55827;SDS011;41758;51.992;5.890;2023-06-14T10:27:08;3.78;;;1.65;;
55827;SDS011;41758;51.992;5.890;2023-06-14T10:32:18;3.17;;;1.60;;
55827;SDS011;41758;51.992;5.890;2023-06-14T10:34:44;2.10;;;1.10;;
55827;SDS011;41758;51.992;5.890;2023-06-14T10:37:11;2.38;;;1.50;;
55827;SDS011;41758;51.992;5.890;2023-06-14T10:39:39;2.30;;;1.50;;
55827;SDS011;41758;51.992;5.890;2023-06-14T10:42:12;2.42;;;1.30;;
55827;SDS011;41758;51.992;5.890;2023-06-14T10:44:39;1.92;;;1.30;;
55827;SDS011;41758;51.992;5.890;2023-06-14T10:47:26;2.70;;;1.60;;
55827;SDS011;41758;51.992;5.890;2023-06-14T10:52:40;2.50;;;1.50;;
55827;SDS011;41758;51.992;5.890;2023-06-14T10:55:15;2.15;;;1.35;;
55827;SDS011;41758;51.992;5.890;2023-06-14T11:00:22;1.33;;;1.00;;
55827;SDS011;41758;51.992;5.890;2023-06-14T11:02:52;1.90;;;1.30;;
55827;SDS011;41758;51.992;5.890;2023-06-14T11:05:27;2.20;;;1.40;;
55827;SDS011;41758;51.992;5.890;2023-06-14T11:07:58;2.28;;;1.20;;
55827;SDS011;41758;51.992;5.890;2023-06-14T11:12:50;1.88;;;1.33;;
55827;SDS011;41758;51.992;5.890;2023-06-14T11:15:19;2.50;;;1.42;;
55827;SDS011;41758;51.992;5.890;2023-06-14T11:17:51;2.58;;;1.42;;
55827;SDS011;41758;51.992;5.890;2023-06-14T11:20:18;2.15;;;1.40;;
55827;SDS011;41758;51.992;5.890;2023-06-14T11:22:44;2.10;;;1.40;;
55827;SDS011;41758;51.992;5.890;2023-06-14T11:25:13;2.88;;;1.15;;
55827;SDS011;41758;51.992;5.890;2023-06-14T11:27:43;1.85;;;1.20;;
55827;SDS011;41758;51.992;5.890;2023-06-14T11:30:09;1.73;;;1.17;;
55827;SDS011;41758;51.992;5.890;2023-06-14T11:32:35;3.35;;;1.45;;
55827;SDS011;41758;51.992;5.890;2023-06-14T11:35:02;1.75;;;1.20;;
55827;SDS011;41758;51.992;5.890;2023-06-14T11:37:29;2.10;;;1.52;;
55827;SDS011;41758;51.992;5.890;2023-06-14T11:39:56;2.55;;;1.30;;
55827;SDS011;41758;51.992;5.890;2023-06-14T11:42:23;2.10;;;1.40;;
55827;SDS011;41758;51.992;5.890;2023-06-14T11:44:51;2.13;;;1.30;;
55827;SDS011;41758;51.992;5.890;2023-06-14T11:47:18;2.35;;;1.40;;
55827;SDS011;41758;51.992;5.890;2023-06-14T11:49:43;2.03;;;1.30;;
55827;SDS011;41758;51.992;5.890;2023-06-14T11:52:09;3.53;;;1.60;;
55827;SDS011;41758;51.992;5.890;2023-06-14T11:54:36;3.03;;;1.52;;
55827;SDS011;41758;51.992;5.890;2023-06-14T11:57:02;2.97;;;1.45;;
55827;SDS011;41758;51.992;5.890;2023-06-14T11:59:29;2.30;;;1.50;;
55827;SDS011;41758;51.992;5.890;2023-06-14T12:01:56;2.83;;;1.40;;
55827;SDS011;41758;51.992;5.890;2023-06-14T12:04:28;2.42;;;1.35;;
55827;SDS011;41758;51.992;5.890;2023-06-14T12:06:55;2.55;;;1.55;;
55827;SDS011;41758;51.992;5.890;2023-06-14T12:09:22;2.25;;;1.20;;
55827;SDS011;41758;51.992;5.890;2023-06-14T12:11:51;2.97;;;1.55;;
55827;SDS011;41758;51.992;5.890;2023-06-14T12:14:28;1.73;;;1.20;;
55827;SDS011;41758;51.992;5.890;2023-06-14T12:17:03;1.80;;;1.30;;
55827;SDS011;41758;51.992;5.890;2023-06-14T12:19:31;2.50;;;1.20;;
55827;SDS011;41758;51.992;5.890;2023-06-14T12:22:00;1.50;;;1.00;;
55827;SDS011;41758;51.992;5.890;2023-06-14T12:24:29;2.17;;;1.20;;
55827;SDS011;41758;51.992;5.890;2023-06-14T12:26:58;1.85;;;1.20;;
55827;SDS011;41758;51.992;5.890;2023-06-14T12:29:30;1.77;;;1.15;;
55827;SDS011;41758;51.992;5.890;2023-06-14T12:31:57;1.35;;;1.05;;
55827;SDS011;41758;51.992;5.890;2023-06-14T12:34:26;5.28;;;1.40;;
55827;SDS011;41758;51.992;5.890;2023-06-14T12:36:55;2.55;;;1.30;;
55827;SDS011;41758;51.992;5.890;2023-06-14T12:39:21;1.73;;;1.20;;
55827;SDS011;41758;51.992;5.890;2023-06-14T12:41:47;1.98;;;1.30;;
55827;SDS011;41758;51.992;5.890;2023-06-14T12:44:14;1.85;;;1.23;;
55827;SDS011;41758;51.992;5.890;2023-06-14T12:46:41;1.73;;;1.20;;
55827;SDS011;41758;51.992;5.890;2023-06-14T12:49:08;2.42;;;1.30;;
55827;SDS011;41758;51.992;5.890;2023-06-14T12:51:35;3.10;;;1.35;;
55827;SDS011;41758;51.992;5.890;2023-06-14T12:54:01;2.30;;;1.42;;
55827;SDS011;41758;51.992;5.890;2023-06-14T12:56:28;2.22;;;1.30;;
55827;SDS011;41758;51.992;5.890;2023-06-14T12:58:54;2.05;;;1.30;;
55827;SDS011;41758;51.992;5.890;2023-06-14T13:01:19;1.70;;;1.20;;
55827;SDS011;41758;51.992;5.890;2023-06-14T13:03:48;1.83;;;1.20;;
55827;SDS011;41758;51.992;5.890;2023-06-14T13:06:16;4.05;;;1.30;;
55827;SDS011;41758;51.992;5.890;2023-06-14T13:08:42;2.13;;;1.20;;
55827;SDS011;41758;51.992;5.890;2023-06-14T13:11:08;2.10;;;1.10;;
55827;SDS011;41758;51.992;5.890;2023-06-14T13:13:34;2.20;;;1.30;;
55827;SDS011;41758;51.992;5.890;2023-06-14T13:16:00;2.72;;;1.30;;
55827;SDS011;41758;51.992;5.890;2023-06-14T13:18:26;1.95;;;1.20;;
55827;SDS011;41758;51.992;5.890;2023-06-14T13:20:51;2.95;;;1.20;;
55827;SDS011;41758;51.992;5.890;2023-06-14T13:23:17;2.30;;;1.10;;
55827;SDS011;41758;51.992;5.890;2023-06-14T13:25:43;1.77;;;1.08;;
55827;SDS011;41758;51.992;5.890;2023-06-14T13:28:09;1.70;;;1.05;;
55827;SDS011;41758;51.992;5.890;2023-06-14T13:30:35;2.15;;;1.00;;
55827;SDS011;41758;51.992;5.890;2023-06-14T13:33:01;2.22;;;1.20;;
55827;SDS011;41758;51.992;5.890;2023-06-14T13:35:27;2.92;;;1.20;;
55827;SDS011;41758;51.992;5.890;2023-06-14T13:37:54;1.98;;;1.00;;
55827;SDS011;41758;51.992;5.890;2023-06-14T13:40:20;1.95;;;1.20;;
55827;SDS011;41758;51.992;5.890;2023-06-14T13:42:46;1.50;;;1.00;;
55827;SDS011;41758;51.992;5.890;2023-06-14T13:45:12;1.70;;;0.93;;
55827;SDS011;41758;51.992;5.890;2023-06-14T13:47:38;1.60;;;1.00;;
55827;SDS011;41758;51.992;5.890;2023-06-14T13:50:04;2.83;;;1.08;;
55827;SDS011;41758;51.992;5.890;2023-06-14T13:52:31;3.03;;;1.20;;
55827;SDS011;41758;51.992;5.890;2023-06-14T13:54:57;1.95;;;1.20;;
55827;SDS011;41758;51.992;5.890;2023-06-14T13:57:22;1.00;;;0.80;;
55827;SDS011;41758;51.992;5.890;2023-06-14T13:59:48;2.53;;;1.13;;
55827;SDS011;41758;51.992;5.890;2023-06-14T14:02:14;1.63;;;1.10;;
55827;SDS011;41758;51.992;5.890;2023-06-14T14:04:40;1.63;;;1.02;;
55827;SDS011;41758;51.992;5.890;2023-06-14T14:07:06;1.35;;;0.93;;
55827;SDS011;41758;51.992;5.890;2023-06-14T14:09:33;2.88;;;1.10;;
55827;SDS011;41758;51.992;5.890;2023-06-14T14:12:03;2.10;;;0.90;;
55827;SDS011;41758;51.992;5.890;2023-06-14T14:14:31;1.80;;;1.08;;
55827;SDS011;41758;51.992;5.890;2023-06-14T14:16:57;1.00;;;0.80;;
55827;SDS011;41758;51.992;5.890;2023-06-14T14:19:23;2.33;;;1.10;;
55827;SDS011;41758;51.992;5.890;2023-06-14T14:21:49;2.17;;;1.10;;
55827;SDS011;41758;51.992;5.890;2023-06-14T14:24:15;2.58;;;1.30;;
55827;SDS011;41758;51.992;5.890;2023-06-14T14:26:41;1.35;;;0.90;;
55827;SDS011;41758;51.992;5.890;2023-06-14T14:29:07;1.52;;;1.00;;
55827;SDS011;41758;51.992;5.890;2023-06-14T14:31:36;2.13;;;1.20;;
55827;SDS011;41758;51.992;5.890;2023-06-14T14:34:02;1.00;;;0.77;;
55827;SDS011;41758;51.992;5.890;2023-06-14T14:36:27;1.30;;;0.90;;
55827;SDS011;41758;51.992;5.890;2023-06-14T14:38:53;1.50;;;1.00;;
55827;SDS011;41758;51.992;5.890;2023-06-14T14:41:19;1.65;;;0.90;;
55827;SDS011;41758;51.992;5.890;2023-06-14T14:43:45;1.33;;;0.90;;
55827;SDS011;41758;51.992;5.890;2023-06-14T14:46:11;2.55;;;1.00;;
55827;SDS011;41758;51.992;5.890;2023-06-14T14:48:36;1.45;;;0.90;;
55827;SDS011;41758;51.992;5.890;2023-06-14T14:51:02;2.08;;;1.10;;
55827;SDS011;41758;51.992;5.890;2023-06-14T14:53:28;1.40;;;0.90;;
55827;SDS011;41758;51.992;5.890;2023-06-14T14:55:54;3.33;;;1.10;;
55827;SDS011;41758;51.992;5.890;2023-06-14T14:58:19;1.92;;;0.95;;
55827;SDS011;41758;51.992;5.890;2023-06-14T15:00:45;0.90;;;0.70;;
55827;SDS011;41758;51.992;5.890;2023-06-14T15:03:12;1.48;;;1.10;;
55827;SDS011;41758;51.992;5.890;2023-06-14T15:05:38;2.42;;;1.10;;